createdAt,value
2023-03-03T00:00:34.348Z,0.65
2023-03-03T00:05:34.226Z,0.78
2023-03-03T00:10:34.199Z,0.64
2023-03-03T00:15:34.143Z,0.58
2023-03-03T00:20:34.057Z,0.49
2023-03-03T00:25:50.250Z,0.51
2023-03-03T00:30:34.022Z,0.48
2023-03-03T00:35:33.906Z,0.45
2023-03-03T00:40:33.787Z,0.46
2023-03-03T00:45:33.715Z,0.48
2023-03-03T00:50:33.672Z,0.53
2023-03-03T00:55:33.658Z,0.52
2023-03-03T01:00:34.257Z,0.61
2023-03-03T01:05:33.444Z,0.46
2023-03-03T01:10:33.425Z,0.43
2023-03-03T01:15:33.433Z,0.38
2023-03-03T01:20:33.273Z,0.43
2023-03-03T01:25:33.251Z,0.38
2023-03-03T01:30:33.195Z,0.46
2023-03-03T01:35:33.137Z,0.49
2023-03-03T01:40:33.072Z,0.49
2023-03-03T01:45:32.991Z,0.46
2023-03-03T01:50:32.919Z,0.52
2023-03-03T01:55:32.934Z,0.48
2023-03-03T02:00:32.765Z,0.41
2023-03-03T02:05:32.706Z,0.51
2023-03-03T02:10:32.720Z,0.53
2023-03-03T02:15:32.597Z,0.58
2023-03-03T02:20:32.624Z,0.24
2023-03-03T02:25:32.492Z,0.03
2023-03-03T02:30:32.366Z,0.00
2023-03-03T02:35:32.392Z,-0.05
2023-03-03T02:40:32.304Z,0.00
2023-03-03T02:45:32.195Z,0.02
2023-03-03T02:50:32.799Z,0.02
2023-03-03T02:55:32.050Z,0.07
2023-03-03T03:00:32.055Z,0.13
2023-03-03T03:05:31.976Z,0.18
2023-03-03T03:10:31.939Z,0.12
2023-03-03T03:15:31.783Z,-0.06
2023-03-03T03:20:31.777Z,-0.23
2023-03-03T03:25:31.754Z,-0.26
2023-03-03T03:30:31.613Z,-0.23
2023-03-03T03:35:31.939Z,-0.29
2023-03-03T03:40:31.494Z,-0.33
2023-03-03T03:45:31.402Z,-0.42
2023-03-03T03:50:31.444Z,-0.36
2023-03-03T03:55:31.333Z,-0.37
2023-03-03T04:00:31.222Z,-0.30
2023-03-03T04:05:31.201Z,-0.34
2023-03-03T04:10:31.117Z,-0.36
2023-03-03T04:15:31.162Z,-0.39
2023-03-03T04:20:30.959Z,-0.37
2023-03-03T04:25:30.927Z,-0.39
2023-03-03T04:30:30.939Z,-0.42
2023-03-03T04:35:30.821Z,-0.41
2023-03-03T04:40:30.724Z,-0.42
2023-03-03T04:45:30.637Z,-0.44
2023-03-03T04:50:30.668Z,-0.37
2023-03-03T04:55:30.520Z,-0.37
2023-03-03T05:00:30.577Z,-0.29
2023-03-03T05:05:30.514Z,-0.16
2023-03-03T05:10:30.337Z,-0.15
2023-03-03T05:15:30.263Z,-0.19
2023-03-03T05:20:30.326Z,-0.23
2023-03-03T05:25:30.160Z,-0.11
2023-03-03T05:30:30.208Z,0.09
2023-03-03T05:35:30.201Z,-0.04
2023-03-03T05:40:30.036Z,0.02
2023-03-03T05:45:29.907Z,0.02
2023-03-03T05:50:29.876Z,0.05
2023-03-03T05:55:29.778Z,0.03
2023-03-03T06:00:29.728Z,0.05
2023-03-03T06:05:29.704Z,0.27
2023-03-03T06:10:29.604Z,0.16
2023-03-03T06:15:29.538Z,0.42
2023-03-03T06:20:29.409Z,0.60
2023-03-03T06:25:29.397Z,0.75
2023-03-03T06:30:29.310Z,0.80
2023-03-03T06:35:29.217Z,0.98
2023-03-03T06:40:29.200Z,1.60
2023-03-03T06:45:29.205Z,1.54
2023-03-03T06:50:29.029Z,1.12
2023-03-03T06:55:28.983Z,0.89
2023-03-03T07:00:30.985Z,1.12
2023-03-03T07:05:28.874Z,1.43
2023-03-03T07:10:28.781Z,1.00
2023-03-03T07:15:28.708Z,0.96
2023-03-03T07:20:28.720Z,1.07
2023-03-03T07:25:28.630Z,1.00
2023-03-03T07:30:28.598Z,0.80
2023-03-03T07:35:28.513Z,0.82
2023-03-03T07:40:28.491Z,0.78
2023-03-03T07:45:28.365Z,0.86
2023-03-03T07:50:28.346Z,1.03
2023-03-03T07:55:28.218Z,1.50
2023-03-03T08:00:28.260Z,1.47
2023-03-03T08:05:28.160Z,1.36
2023-03-03T08:10:28.144Z,1.29
2023-03-03T08:15:28.015Z,2.04
2023-03-03T08:20:27.945Z,1.34
2023-03-03T08:25:27.841Z,1.61
2023-03-03T08:30:27.816Z,1.80
2023-03-03T08:35:27.787Z,1.90
2023-03-03T08:40:27.654Z,2.31
2023-03-03T08:45:28.011Z,1.80
2023-03-03T08:50:27.551Z,1.39
2023-03-03T08:55:27.529Z,1.28
2023-03-03T09:00:27.375Z,1.36
2023-03-03T09:05:27.338Z,1.37
2023-03-03T09:10:27.264Z,1.64
2023-03-03T09:15:27.241Z,1.39
2023-03-03T09:20:27.134Z,1.54
2023-03-03T09:25:27.128Z,1.79
2023-03-03T09:30:27.010Z,1.78
2023-03-03T09:35:26.974Z,1.82
2023-03-03T09:40:27.041Z,2.01
2023-03-03T09:45:26.915Z,1.68
2023-03-03T09:50:27.077Z,2.20
2023-03-03T09:55:26.680Z,2.26
2023-03-03T10:00:26.617Z,2.40
2023-03-03T10:05:26.603Z,2.20
2023-03-03T10:10:26.580Z,1.75
2023-03-03T10:15:26.472Z,1.57
2023-03-03T10:20:26.366Z,1.72
2023-03-03T10:25:26.322Z,1.79
2023-03-03T10:30:38.957Z,2.28
2023-03-03T10:35:27.254Z,2.34
2023-03-03T10:40:26.118Z,2.33
2023-03-03T10:45:26.020Z,2.13
2023-03-03T10:50:26.000Z,2.27
2023-03-03T10:55:25.891Z,2.08
2023-03-03T11:00:25.827Z,2.46
2023-03-03T11:05:25.777Z,2.55
2023-03-03T11:10:25.718Z,2.95
2023-03-03T11:15:25.668Z,2.70
2023-03-03T11:20:25.565Z,2.51
2023-03-03T11:25:25.598Z,2.33
2023-03-03T11:30:25.444Z,2.08
2023-03-03T11:35:25.412Z,1.90
2023-03-03T11:40:25.294Z,1.98
2023-03-03T11:45:25.262Z,1.94
2023-03-03T11:50:25.169Z,1.71
2023-03-03T11:55:25.114Z,1.73
2023-03-03T12:00:25.051Z,1.85
2023-03-03T12:05:25.018Z,1.85
2023-03-03T12:10:24.993Z,1.80
2023-03-03T12:15:24.908Z,1.89
2023-03-03T12:20:24.843Z,2.31
2023-03-03T12:25:24.830Z,2.20
2023-03-03T12:30:24.713Z,2.46
2023-03-03T12:35:24.678Z,2.51
2023-03-03T12:40:24.560Z,2.44
2023-03-03T12:45:24.511Z,2.71
2023-03-03T12:50:24.497Z,2.81
2023-03-03T12:55:24.468Z,3.20
2023-03-03T13:00:24.448Z,2.71
2023-03-03T13:05:24.273Z,2.45
2023-03-03T13:10:24.195Z,2.37
2023-03-03T13:15:31.621Z,2.35
2023-03-03T13:20:25.085Z,2.46
2023-03-03T13:25:24.066Z,2.67
2023-03-03T13:30:23.944Z,2.88
2023-03-03T13:35:23.962Z,2.94
2023-03-03T13:40:23.805Z,2.88
2023-03-03T13:45:23.868Z,3.20
2023-03-03T13:50:23.807Z,2.97
2023-03-03T13:55:23.621Z,2.61
2023-03-03T14:00:23.628Z,2.71
2023-03-03T14:05:23.515Z,2.53
2023-03-03T14:10:23.601Z,2.44
2023-03-03T14:15:23.327Z,2.70
2023-03-03T14:20:23.302Z,2.94
2023-03-03T14:25:23.203Z,3.20
2023-03-03T14:30:23.262Z,2.91
2023-03-03T14:35:23.234Z,9.21
2023-03-03T14:40:23.110Z,8.51
2023-03-03T14:45:29.549Z,5.89
2023-03-03T14:50:24.171Z,5.02
2023-03-03T14:55:22.896Z,4.00
2023-03-03T15:00:23.027Z,3.79
2023-03-03T15:05:22.730Z,3.43
2023-03-03T15:10:22.724Z,3.30
2023-03-03T15:15:22.639Z,3.16
2023-03-03T15:20:22.568Z,3.30
2023-03-03T15:25:24.114Z,3.02
2023-03-03T15:30:22.398Z,3.13
2023-03-03T15:35:22.339Z,3.40
2023-03-03T15:40:22.308Z,3.60
2023-03-03T15:45:22.200Z,4.03
2023-03-03T15:50:22.160Z,3.79
2023-03-03T15:55:22.103Z,3.71
2023-03-03T16:00:21.955Z,3.23
2023-03-03T16:05:21.928Z,3.07
2023-03-03T16:10:21.874Z,3.18
2023-03-03T16:15:21.842Z,3.21
2023-03-03T16:20:21.695Z,3.60
2023-03-03T16:25:21.631Z,3.50
2023-03-03T16:30:21.706Z,3.36
2023-03-03T16:35:21.593Z,3.30
2023-03-03T16:40:21.484Z,3.06
2023-03-03T16:45:22.451Z,3.16
2023-03-03T16:50:21.345Z,2.95
2023-03-03T16:55:21.318Z,2.91
2023-03-03T17:00:21.211Z,3.05
2023-03-03T17:05:21.173Z,2.85
2023-03-03T17:10:21.096Z,2.74
2023-03-03T17:15:21.045Z,3.13
2023-03-03T17:20:20.949Z,3.34
2023-03-03T17:25:20.876Z,3.06
2023-03-03T17:30:22.315Z,2.88
2023-03-03T17:35:20.813Z,3.31
2023-03-03T17:40:20.696Z,3.64
2023-03-03T17:45:20.619Z,3.24
2023-03-03T17:50:20.727Z,3.70
2023-03-03T17:55:20.481Z,3.44
2023-03-03T18:00:20.416Z,3.33
2023-03-03T18:05:20.426Z,3.75
2023-03-03T18:10:20.322Z,3.92
2023-03-03T18:15:20.240Z,3.75
2023-03-03T18:20:20.279Z,3.75
2023-03-03T18:25:20.148Z,3.62
2023-03-03T18:30:20.089Z,3.53
2023-03-03T18:35:20.048Z,3.23
2023-03-03T18:40:19.970Z,2.97
2023-03-03T18:45:19.979Z,2.89
2023-03-03T18:50:19.900Z,2.91
2023-03-03T18:55:19.908Z,3.03
2023-03-03T19:00:19.668Z,3.06
2023-03-03T19:05:19.721Z,3.05
2023-03-03T19:10:19.749Z,2.89
2023-03-03T19:15:19.621Z,2.79
2023-03-03T19:20:19.631Z,2.94
2023-03-03T19:25:19.550Z,2.88
2023-03-03T19:30:19.258Z,2.89
2023-03-03T19:35:19.322Z,3.05
2023-03-03T19:40:19.174Z,2.71
2023-03-03T19:45:19.105Z,2.76
2023-03-03T19:50:19.082Z,2.94
2023-03-03T19:55:18.933Z,2.94
2023-03-03T20:00:19.203Z,3.10
2023-03-03T20:05:18.980Z,3.43
2023-03-03T20:10:18.931Z,3.33
2023-03-03T20:15:18.813Z,3.30
2023-03-03T20:20:18.824Z,3.00
2023-03-03T20:25:18.623Z,3.28
2023-03-03T20:30:18.598Z,3.61
2023-03-03T20:35:18.535Z,3.42
2023-03-03T20:40:18.448Z,3.46
2023-03-03T20:45:18.377Z,3.49
2023-03-03T20:50:18.322Z,3.94
2023-03-03T20:55:18.180Z,3.83
2023-03-03T21:00:18.248Z,3.90
2023-03-03T21:05:18.040Z,3.75
2023-03-03T21:10:18.145Z,3.60
2023-03-03T21:15:17.908Z,3.65
2023-03-03T21:20:17.870Z,3.92
2023-03-03T21:25:17.812Z,3.96
2023-03-03T21:30:17.735Z,4.04
2023-03-03T21:35:17.670Z,3.58
2023-03-03T21:40:17.732Z,3.61
2023-03-03T21:45:17.527Z,3.79
2023-03-03T21:50:17.477Z,3.62
2023-03-03T21:55:17.632Z,3.53
2023-03-03T22:00:17.907Z,3.40
2023-03-03T22:05:17.322Z,3.78
2023-03-03T22:10:17.302Z,3.70
2023-03-03T22:15:17.212Z,3.64
2023-03-03T22:20:17.203Z,3.65
2023-03-03T22:25:17.034Z,3.79
2023-03-03T22:30:17.022Z,3.71
2023-03-03T22:35:16.947Z,3.76
2023-03-03T22:40:16.885Z,3.70
2023-03-03T22:45:17.587Z,3.70
2023-03-03T22:50:16.857Z,4.06
2023-03-03T22:55:16.652Z,3.96
2023-03-03T23:00:16.734Z,4.42
2023-03-03T23:05:16.705Z,4.28
2023-03-03T23:10:16.556Z,4.25
2023-03-03T23:15:16.402Z,4.21
2023-03-03T23:20:16.329Z,4.51
2023-03-03T23:25:16.274Z,4.04
2023-03-03T23:30:16.214Z,4.76
2023-03-03T23:35:16.165Z,4.79
2023-03-03T23:40:16.429Z,5.22
2023-03-03T23:45:16.139Z,5.02
2023-03-03T23:50:15.946Z,4.91
2023-03-03T23:55:15.876Z,5.09
